createdAt,value
2023-11-12T00:00:17.925Z,6.43
2023-11-12T00:02:45.537Z,6.22
2023-11-12T00:05:14.646Z,5.65
2023-11-12T00:07:42.344Z,6.05
2023-11-12T00:10:13.196Z,6.32
2023-11-12T00:12:41.056Z,6.05
2023-11-12T00:15:09.654Z,6.18
2023-11-12T00:17:38.617Z,5.88
2023-11-12T00:20:08.030Z,7.32
2023-11-12T00:22:37.029Z,14.60
2023-11-12T00:25:04.920Z,9.15
2023-11-12T00:27:32.564Z,6.50
2023-11-12T00:30:00.254Z,6.10
2023-11-12T00:32:29.383Z,6.55
2023-11-12T00:34:57.254Z,6.00
2023-11-12T00:37:24.901Z,6.15
2023-11-12T00:39:53.929Z,6.28
2023-11-12T00:42:21.521Z,5.47
2023-11-12T00:44:49.109Z,5.93
2023-11-12T00:47:17.316Z,6.00
2023-11-12T00:49:44.968Z,5.70
2023-11-12T00:52:12.657Z,5.63
2023-11-12T00:54:40.762Z,5.80
2023-11-12T00:57:09.704Z,5.43
2023-11-12T00:59:37.427Z,5.70
2023-11-12T01:02:05.637Z,6.38
2023-11-12T01:04:33.788Z,5.70
2023-11-12T01:07:01.361Z,5.38
2023-11-12T01:09:29.436Z,5.22
2023-11-12T01:11:57.289Z,5.30
2023-11-12T01:14:26.433Z,4.65
2023-11-12T01:16:56.258Z,4.22
2023-11-12T01:19:24.023Z,4.65
2023-11-12T01:21:51.746Z,4.55
2023-11-12T01:24:20.763Z,4.15
2023-11-12T01:26:48.411Z,4.35
2023-11-12T01:29:16.180Z,4.47
2023-11-12T01:31:46.401Z,4.50
2023-11-12T01:34:15.197Z,4.43
2023-11-12T01:36:42.802Z,4.75
2023-11-12T01:39:10.529Z,4.88
2023-11-12T01:41:38.279Z,4.22
2023-11-12T01:44:06.022Z,4.40
2023-11-12T01:46:35.622Z,5.00
2023-11-12T01:49:06.102Z,4.80
2023-11-12T01:51:35.502Z,4.72
2023-11-12T01:54:03.824Z,4.55
2023-11-12T01:56:33.457Z,4.05
2023-11-12T01:59:02.297Z,4.22
2023-11-12T02:01:29.962Z,4.07
2023-11-12T02:03:58.235Z,4.47
2023-11-12T02:06:27.576Z,3.63
2023-11-12T02:08:56.593Z,3.58
2023-11-12T02:11:25.004Z,3.20
2023-11-12T02:13:54.678Z,3.70
2023-11-12T02:16:23.139Z,4.18
2023-11-12T02:18:50.869Z,3.95
2023-11-12T02:21:24.141Z,3.28
2023-11-12T02:23:53.275Z,3.50
2023-11-12T02:26:21.069Z,3.65
2023-11-12T02:28:49.169Z,3.28
2023-11-12T02:31:17.650Z,3.28
2023-11-12T02:33:45.744Z,3.97
2023-11-12T02:36:14.933Z,3.85
2023-11-12T02:38:42.555Z,3.47
2023-11-12T02:41:12.771Z,3.42
2023-11-12T02:43:41.310Z,3.42
2023-11-12T02:46:10.124Z,3.40
2023-11-12T02:48:51.402Z,3.40
2023-11-12T02:51:19.501Z,3.08
2023-11-12T02:53:47.174Z,2.90
2023-11-12T02:56:17.724Z,2.70
2023-11-12T02:58:45.398Z,3.08
2023-11-12T03:01:13.035Z,3.03
2023-11-12T03:03:40.789Z,3.70
2023-11-12T03:06:08.535Z,3.20
2023-11-12T03:08:36.164Z,2.75
2023-11-12T03:11:03.898Z,2.80
2023-11-12T03:13:32.935Z,2.70
2023-11-12T03:16:00.608Z,3.13
2023-11-12T03:18:28.271Z,2.63
2023-11-12T03:20:56.045Z,4.43
2023-11-12T03:23:23.624Z,4.22
2023-11-12T03:25:51.214Z,2.60
2023-11-12T03:28:18.997Z,3.00
2023-11-12T03:30:48.065Z,2.70
2023-11-12T03:33:15.859Z,2.75
2023-11-12T03:35:43.634Z,2.28
2023-11-12T03:38:11.569Z,2.28
2023-11-12T03:40:39.169Z,2.17
2023-11-12T03:43:07.153Z,2.03
2023-11-12T03:45:34.836Z,2.42
2023-11-12T03:48:03.847Z,2.28
2023-11-12T03:50:31.506Z,2.55
2023-11-12T03:52:59.088Z,3.08
2023-11-12T03:55:26.747Z,2.20
2023-11-12T03:57:54.448Z,1.73
2023-11-12T04:00:22.288Z,1.60
2023-11-12T04:02:50.020Z,1.85
2023-11-12T04:05:19.177Z,1.92
2023-11-12T04:07:47.148Z,2.28
2023-11-12T04:10:14.888Z,1.90
2023-11-12T04:12:42.556Z,1.67
2023-11-12T04:15:10.665Z,1.90
2023-11-12T04:17:38.532Z,1.73
2023-11-12T04:20:09.696Z,2.40
2023-11-12T04:22:42.450Z,1.70
2023-11-12T04:25:12.385Z,1.83
2023-11-12T04:27:39.987Z,1.85
2023-11-12T04:30:10.515Z,1.65
2023-11-12T04:32:39.821Z,2.10
2023-11-12T04:35:08.397Z,1.77
2023-11-12T04:37:37.034Z,2.28
2023-11-12T04:40:07.438Z,1.90
2023-11-12T04:42:35.137Z,2.05
2023-11-12T04:45:03.729Z,1.85
2023-11-12T04:47:31.724Z,2.25
2023-11-12T04:50:00.240Z,2.00
2023-11-12T04:52:27.868Z,2.17
2023-11-12T04:54:55.536Z,1.98
2023-11-12T04:57:24.687Z,1.92
2023-11-12T04:59:52.870Z,2.03
2023-11-12T05:02:21.056Z,2.08
2023-11-12T05:04:48.662Z,1.95
2023-11-12T05:07:16.357Z,1.77
2023-11-12T05:09:44.088Z,1.70
2023-11-12T05:12:11.729Z,1.88
2023-11-12T05:14:40.888Z,1.65
2023-11-12T05:17:08.533Z,1.83
2023-11-12T05:19:37.186Z,1.85
2023-11-12T05:22:04.920Z,1.63
2023-11-12T05:24:32.536Z,1.65
2023-11-12T05:27:00.206Z,1.85
2023-11-12T05:29:27.837Z,2.05
2023-11-12T05:31:57.486Z,1.80
2023-11-12T05:34:25.275Z,1.63
2023-11-12T05:36:53.384Z,2.15
2023-11-12T05:39:21.649Z,1.77
2023-11-12T05:41:49.282Z,1.90
2023-11-12T05:44:16.873Z,1.90
2023-11-12T05:46:44.484Z,2.28
2023-11-12T05:49:13.398Z,1.88
2023-11-12T05:51:41.062Z,1.90
2023-11-12T05:54:08.851Z,2.13
2023-11-12T05:56:36.556Z,2.33
2023-11-12T05:59:04.188Z,2.25
2023-11-12T06:01:31.973Z,1.80
2023-11-12T06:04:01.297Z,2.10
2023-11-12T06:06:30.374Z,2.47
2023-11-12T06:08:58.828Z,4.03
2023-11-12T06:11:27.078Z,3.05
2023-11-12T06:13:54.654Z,2.47
2023-11-12T06:16:22.514Z,2.00
2023-11-12T06:18:50.646Z,2.10
2023-11-12T06:21:18.342Z,2.08
2023-11-12T06:23:47.388Z,2.00
2023-11-12T06:26:15.064Z,2.30
2023-11-12T06:28:42.626Z,2.88
2023-11-12T06:31:10.369Z,2.10
2023-11-12T06:33:38.280Z,1.77
2023-11-12T06:36:06.962Z,1.92
2023-11-12T06:38:34.506Z,1.98
2023-11-12T06:41:03.484Z,2.00
2023-11-12T06:43:31.114Z,2.00
2023-11-12T06:45:58.713Z,2.53
2023-11-12T06:48:26.555Z,1.98
2023-11-12T06:50:54.153Z,2.08
2023-11-12T06:53:21.742Z,2.40
2023-11-12T06:55:49.358Z,2.88
2023-11-12T06:58:18.321Z,2.85
2023-11-12T07:00:46.863Z,2.55
2023-11-12T07:03:14.643Z,2.63
2023-11-12T07:05:42.864Z,2.30
2023-11-12T07:08:10.505Z,2.95
2023-11-12T07:10:39.100Z,3.33
2023-11-12T07:13:06.812Z,5.30
2023-11-12T07:15:35.837Z,5.55
2023-11-12T07:18:03.511Z,4.20
2023-11-12T07:20:33.672Z,3.85
2023-11-12T07:23:01.975Z,2.22
2023-11-12T07:25:29.671Z,3.70
2023-11-12T07:27:57.314Z,11.18
2023-11-12T07:30:25.153Z,11.45
2023-11-12T07:32:54.193Z,8.07
2023-11-12T07:35:21.798Z,8.15
2023-11-12T07:37:49.485Z,5.82
2023-11-12T07:40:19.060Z,5.65
2023-11-12T07:42:46.726Z,3.40
2023-11-12T07:45:21.009Z,3.05
2023-11-12T07:47:51.035Z,3.35
2023-11-12T07:50:19.945Z,2.70
2023-11-12T07:52:47.780Z,2.10
2023-11-12T07:55:15.462Z,2.10
2023-11-12T07:57:43.641Z,2.10
2023-11-12T08:00:14.266Z,3.17
2023-11-12T08:02:42.163Z,2.70
2023-11-12T08:05:11.145Z,1.85
2023-11-12T08:07:40.986Z,2.10
2023-11-12T08:10:09.589Z,2.40
2023-11-12T08:12:37.421Z,1.85
2023-11-12T08:15:06.480Z,2.13
2023-11-12T08:17:34.394Z,2.58
2023-11-12T08:20:02.020Z,2.08
2023-11-12T08:22:29.601Z,2.05
2023-11-12T08:24:58.616Z,2.22
2023-11-12T08:27:26.273Z,2.63
2023-11-12T08:29:53.980Z,2.45
2023-11-12T08:32:21.577Z,2.10
2023-11-12T08:34:49.171Z,2.60
2023-11-12T08:37:16.978Z,2.55
2023-11-12T08:39:44.722Z,3.10
2023-11-12T08:42:14.094Z,2.90
2023-11-12T08:44:41.789Z,2.58
2023-11-12T08:47:09.554Z,3.10
2023-11-12T08:49:37.263Z,4.90
2023-11-12T08:52:05.384Z,5.72
2023-11-12T08:54:33.206Z,4.88
2023-11-12T08:57:02.996Z,3.00
2023-11-12T08:59:33.311Z,3.47
2023-11-12T09:02:01.086Z,3.25
2023-11-12T09:04:28.996Z,3.20
2023-11-12T09:06:56.892Z,2.30
2023-11-12T09:09:24.492Z,2.13
2023-11-12T09:11:52.511Z,2.92
2023-11-12T09:14:22.363Z,2.50
2023-11-12T09:16:51.387Z,2.58
2023-11-12T09:19:19.123Z,4.22
2023-11-12T09:21:46.838Z,18.00
2023-11-12T09:24:15.257Z,8.60
2023-11-12T09:26:42.940Z,3.38
2023-11-12T09:29:10.516Z,2.20
2023-11-12T09:31:38.127Z,1.98
2023-11-12T09:34:07.579Z,3.97
2023-11-12T09:36:35.388Z,3.10
2023-11-12T09:39:04.711Z,2.10
2023-11-12T09:41:34.308Z,1.40
2023-11-12T09:44:04.912Z,0.60
2023-11-12T09:46:33.513Z,0.60
2023-11-12T09:49:01.582Z,0.93
2023-11-12T09:51:30.754Z,1.00
2023-11-12T09:54:00.070Z,0.90
2023-11-12T09:56:27.704Z,0.77
2023-11-12T09:58:55.936Z,0.50
2023-11-12T10:01:24.552Z,0.52
2023-11-12T10:03:53.104Z,0.43
2023-11-12T10:06:23.308Z,0.60
2023-11-12T10:08:52.556Z,0.40
2023-11-12T10:11:22.534Z,0.68
2023-11-12T10:13:52.069Z,0.45
2023-11-12T10:16:23.104Z,0.82
2023-11-12T10:18:51.643Z,0.98
2023-11-12T10:21:20.512Z,0.55
2023-11-12T10:23:48.112Z,0.50
2023-11-12T10:26:17.309Z,0.25
2023-11-12T10:28:45.074Z,0.52
2023-11-12T10:31:15.330Z,0.70
2023-11-12T10:33:43.841Z,1.17
2023-11-12T10:36:14.345Z,7.40
2023-11-12T10:38:48.315Z,3.78
2023-11-12T10:41:17.479Z,2.72
2023-11-12T10:43:58.521Z,4.28
2023-11-12T10:46:27.506Z,3.03
2023-11-12T10:48:56.657Z,1.73
2023-11-12T10:51:26.281Z,2.72
2023-11-12T10:53:57.594Z,2.65
2023-11-12T10:56:26.666Z,2.13
2023-11-12T10:58:55.353Z,2.53
2023-11-12T11:01:24.307Z,1.20
2023-11-12T11:03:52.774Z,2.72
2023-11-12T11:06:20.693Z,1.80
2023-11-12T11:08:48.273Z,1.20
2023-11-12T11:11:16.171Z,1.00
2023-11-12T11:13:47.109Z,1.02
2023-11-12T11:16:46.905Z,1.05
2023-11-12T11:19:14.718Z,1.00
2023-11-12T11:21:43.148Z,1.55
2023-11-12T11:24:44.965Z,1.40
2023-11-12T11:27:13.863Z,1.75
2023-11-12T11:30:07.082Z,2.35
2023-11-12T11:32:34.909Z,1.90
2023-11-12T11:35:08.107Z,1.20
2023-11-12T11:38:10.730Z,1.63
2023-11-12T11:40:39.534Z,1.30
2023-11-12T11:43:35.089Z,1.20
2023-11-12T11:46:12.144Z,1.23
2023-11-12T11:49:13.262Z,0.77
2023-11-12T11:51:49.684Z,0.88
2023-11-12T11:54:17.650Z,2.00
2023-11-12T11:56:45.395Z,2.08
2023-11-12T11:59:13.778Z,0.90
2023-11-12T12:01:49.270Z,1.80
2023-11-12T12:04:17.737Z,0.80
2023-11-12T12:06:47.446Z,1.20
2023-11-12T12:09:18.933Z,1.60
2023-11-12T12:11:48.212Z,1.00
2023-11-12T12:14:16.987Z,1.00
2023-11-12T12:16:46.475Z,0.95
2023-11-12T12:19:19.920Z,1.42
2023-11-12T12:21:49.939Z,2.05
2023-11-12T12:24:18.860Z,1.80
2023-11-12T12:26:46.767Z,2.50
2023-11-12T12:29:19.677Z,1.80
2023-11-12T12:31:49.419Z,2.25
2023-11-12T12:34:20.398Z,2.08
2023-11-12T12:37:06.261Z,2.05
2023-11-12T12:39:51.341Z,1.60
2023-11-12T12:42:20.285Z,2.00
2023-11-12T12:44:50.091Z,1.40
2023-11-12T12:47:31.574Z,1.63
2023-11-12T12:50:00.690Z,1.45
2023-11-12T12:52:28.824Z,1.55
2023-11-12T12:54:56.541Z,2.20
2023-11-12T12:57:25.314Z,1.80
2023-11-12T12:59:52.944Z,1.70
2023-11-12T13:02:21.047Z,1.10
2023-11-12T13:04:51.779Z,1.10
2023-11-12T13:07:22.670Z,1.10
2023-11-12T13:09:51.243Z,1.38
2023-11-12T13:12:19.149Z,1.10
2023-11-12T13:14:48.451Z,2.20
2023-11-12T13:17:16.821Z,1.42
2023-11-12T13:19:45.720Z,1.30
2023-11-12T13:22:13.374Z,1.30
2023-11-12T13:24:44.353Z,1.08
2023-11-12T13:27:12.187Z,1.10
2023-11-12T13:29:41.938Z,1.30
2023-11-12T13:32:10.483Z,0.98
2023-11-12T13:34:39.186Z,1.20
2023-11-12T13:37:06.777Z,1.17
2023-11-12T13:39:34.520Z,1.70
2023-11-12T13:42:05.728Z,2.13
2023-11-12T13:44:35.603Z,1.50
2023-11-12T13:47:03.360Z,0.90
2023-11-12T13:49:31.548Z,2.97
2023-11-12T13:51:59.483Z,2.05
2023-11-12T13:54:27.143Z,1.25
2023-11-12T13:56:54.763Z,1.00
2023-11-12T13:59:23.697Z,2.30
2023-11-12T14:01:52.246Z,3.75
2023-11-12T14:04:20.053Z,4.65
2023-11-12T14:06:51.992Z,1.45
2023-11-12T14:09:20.198Z,1.40
2023-11-12T14:11:51.802Z,1.27
2023-11-12T14:14:19.677Z,1.80
2023-11-12T14:16:48.736Z,2.53
2023-11-12T14:19:16.547Z,3.53
2023-11-12T14:21:45.034Z,3.90
2023-11-12T14:24:13.436Z,3.83
2023-11-12T14:26:44.776Z,2.80
2023-11-12T14:29:13.544Z,2.05
2023-11-12T14:31:41.200Z,2.47
2023-11-12T14:34:14.184Z,1.63
2023-11-12T14:36:42.444Z,1.70
2023-11-12T14:39:12.122Z,1.40
2023-11-12T14:41:41.732Z,1.65
2023-11-12T14:44:09.856Z,1.05
2023-11-12T14:46:38.103Z,1.17
2023-11-12T14:49:07.487Z,1.52
2023-11-12T14:51:41.384Z,1.50
2023-11-12T14:54:09.325Z,1.10
2023-11-12T14:56:37.461Z,0.90
2023-11-12T14:59:05.939Z,0.82
2023-11-12T15:01:33.638Z,0.63
2023-11-12T15:04:01.658Z,0.52
2023-11-12T15:06:29.383Z,0.40
2023-11-12T15:08:58.375Z,0.40
2023-11-12T15:11:26.078Z,0.55
2023-11-12T15:13:54.370Z,0.50
2023-11-12T15:16:24.642Z,0.85
2023-11-12T15:18:52.873Z,0.57
2023-11-12T15:21:21.119Z,0.40
2023-11-12T15:23:48.974Z,0.32
2023-11-12T15:26:18.185Z,0.40
2023-11-12T15:28:47.421Z,0.60
2023-11-12T15:31:16.052Z,0.73
2023-11-12T15:33:43.777Z,0.57
2023-11-12T15:36:11.663Z,0.47
2023-11-12T15:38:39.356Z,0.40
2023-11-12T15:41:07.381Z,0.47
2023-11-12T15:43:36.449Z,0.35
2023-11-12T15:46:06.407Z,0.50
2023-11-12T15:48:34.305Z,0.65
2023-11-12T15:51:02.373Z,0.93
2023-11-12T15:53:32.600Z,0.60
2023-11-12T15:56:00.941Z,0.60
2023-11-12T15:58:29.398Z,0.57
2023-11-12T16:00:58.722Z,0.80
2023-11-12T16:03:26.824Z,0.73
2023-11-12T16:05:54.654Z,0.88
2023-11-12T16:08:22.900Z,0.77
2023-11-12T16:10:50.490Z,1.50
2023-11-12T16:13:18.983Z,0.80
2023-11-12T16:15:46.629Z,0.80
2023-11-12T16:18:15.572Z,0.80
2023-11-12T16:20:43.221Z,0.73
2023-11-12T16:23:11.238Z,0.43
2023-11-12T16:25:38.925Z,0.68
2023-11-12T16:28:06.932Z,0.80
2023-11-12T16:30:35.213Z,0.95
2023-11-12T16:33:02.882Z,0.90
2023-11-12T16:35:33.274Z,0.80
2023-11-12T16:38:05.132Z,0.90
2023-11-12T16:40:35.227Z,0.60
2023-11-12T16:43:04.362Z,0.50
2023-11-12T16:45:32.635Z,0.50
2023-11-12T16:48:01.098Z,0.70
2023-11-12T16:50:29.450Z,0.60
2023-11-12T16:52:58.408Z,0.47
2023-11-12T16:55:26.208Z,0.60
2023-11-12T16:57:53.942Z,0.75
2023-11-12T17:00:22.992Z,0.90
2023-11-12T17:02:50.860Z,0.60
2023-11-12T17:05:20.331Z,1.40
2023-11-12T17:07:48.146Z,1.10
2023-11-12T17:10:17.284Z,1.48
2023-11-12T17:12:44.982Z,1.63
2023-11-12T17:15:12.986Z,3.28
2023-11-12T17:17:42.011Z,2.45
2023-11-12T17:20:13.999Z,1.67
2023-11-12T17:22:42.521Z,2.08
2023-11-12T17:25:11.170Z,3.70
2023-11-12T17:27:40.515Z,2.38
2023-11-12T17:30:09.397Z,1.90
2023-11-12T17:32:38.848Z,2.10
2023-11-12T17:35:08.519Z,1.98
2023-11-12T17:37:36.329Z,1.90
2023-11-12T17:40:04.431Z,1.70
2023-11-12T17:42:32.218Z,1.08
2023-11-12T17:45:03.357Z,2.25
2023-11-12T17:47:31.003Z,1.27
2023-11-12T17:49:58.992Z,0.90
2023-11-12T17:52:26.959Z,1.80
2023-11-12T17:54:57.285Z,0.93
2023-11-12T17:57:28.441Z,1.17
2023-11-12T17:59:56.146Z,0.80
2023-11-12T18:02:26.225Z,1.38
2023-11-12T18:04:54.020Z,1.42
2023-11-12T18:07:21.752Z,1.48
2023-11-12T18:09:49.382Z,2.22
2023-11-12T18:12:16.978Z,2.08
2023-11-12T18:14:44.627Z,2.33
2023-11-12T18:17:12.938Z,1.52
2023-11-12T18:19:42.113Z,2.50
2023-11-12T18:22:10.657Z,2.67
2023-11-12T18:24:38.599Z,2.58
2023-11-12T18:27:06.413Z,2.55
2023-11-12T18:29:36.059Z,7.53
2023-11-12T18:32:04.916Z,5.18
2023-11-12T18:34:33.519Z,4.20
2023-11-12T18:37:02.626Z,4.28
2023-11-12T18:39:31.106Z,3.88
2023-11-12T18:41:58.722Z,3.50
2023-11-12T18:44:26.277Z,2.90
2023-11-12T18:46:54.314Z,3.65
2023-11-12T18:49:23.078Z,3.33
2023-11-12T18:51:51.235Z,2.47
2023-11-12T18:54:20.752Z,3.30
2023-11-12T18:56:48.557Z,2.60
2023-11-12T18:59:16.942Z,1.60
2023-11-12T19:01:44.678Z,1.75
2023-11-12T19:04:12.445Z,1.88
2023-11-12T19:06:41.512Z,3.72
2023-11-12T19:09:10.240Z,7.50
2023-11-12T19:11:39.187Z,2.30
2023-11-12T19:14:08.240Z,2.60
2023-11-12T19:16:36.875Z,2.05
2023-11-12T19:19:05.419Z,2.22
2023-11-12T19:21:36.195Z,1.50
2023-11-12T19:24:07.541Z,1.80
2023-11-12T19:26:36.027Z,1.33
2023-11-12T19:29:05.001Z,1.80
2023-11-12T19:31:34.377Z,1.48
2023-11-12T19:34:02.349Z,1.63
2023-11-12T19:36:30.129Z,1.45
2023-11-12T19:38:57.820Z,1.60
2023-11-12T19:41:25.478Z,1.25
2023-11-12T19:43:54.432Z,1.45
2023-11-12T19:46:23.673Z,1.80
2023-11-12T19:48:54.096Z,1.60
2023-11-12T19:51:22.362Z,1.70
2023-11-12T19:53:50.076Z,1.60
2023-11-12T19:56:18.246Z,1.85
2023-11-12T19:58:47.245Z,1.90
2023-11-12T20:01:16.133Z,1.80
2023-11-12T20:03:46.324Z,1.40
2023-11-12T20:06:14.760Z,1.30
2023-11-12T20:08:42.482Z,1.70
2023-11-12T20:11:10.152Z,1.60
2023-11-12T20:13:40.098Z,1.13
2023-11-12T20:16:10.350Z,1.30
2023-11-12T20:18:38.358Z,1.35
2023-11-12T20:21:10.610Z,1.98
2023-11-12T20:23:38.438Z,1.60
2023-11-12T20:26:06.589Z,2.20
2023-11-12T20:28:34.544Z,1.27
2023-11-12T20:31:03.987Z,1.42
2023-11-12T20:33:31.654Z,1.70
2023-11-12T20:36:00.204Z,1.83
2023-11-12T20:38:29.189Z,2.30
2023-11-12T20:40:56.886Z,1.50
2023-11-12T20:43:24.881Z,1.42
2023-11-12T20:45:54.480Z,1.80
2023-11-12T20:48:22.154Z,1.58
2023-11-12T20:50:49.849Z,1.50
2023-11-12T20:53:17.467Z,2.08
2023-11-12T20:55:46.483Z,3.83
2023-11-12T20:58:14.106Z,3.05
2023-11-12T21:00:44.341Z,3.22
2023-11-12T21:03:12.087Z,2.40
2023-11-12T21:05:39.763Z,1.90
2023-11-12T21:08:07.368Z,4.65
2023-11-12T21:10:36.652Z,4.07
2023-11-12T21:13:05.946Z,2.55
2023-11-12T21:15:33.583Z,2.38
2023-11-12T21:18:01.509Z,2.42
2023-11-12T21:20:29.595Z,2.50
2023-11-12T21:22:59.043Z,2.25
2023-11-12T21:25:28.154Z,2.55
2023-11-12T21:27:55.835Z,2.55
2023-11-12T21:30:27.186Z,2.92
2023-11-12T21:32:58.127Z,4.05
2023-11-12T21:35:26.179Z,3.08
2023-11-12T21:37:54.008Z,3.92
2023-11-12T21:40:22.671Z,3.90
2023-11-12T21:42:50.944Z,4.20
2023-11-12T21:45:18.564Z,3.25
2023-11-12T21:47:47.481Z,3.28
2023-11-12T21:50:17.056Z,2.85
2023-11-12T21:52:45.225Z,3.03
2023-11-12T21:55:12.856Z,2.83
2023-11-12T21:57:40.541Z,3.45
2023-11-12T22:00:12.628Z,4.18
2023-11-12T22:02:41.303Z,3.58
2023-11-12T22:05:11.117Z,3.03
2023-11-12T22:07:39.383Z,3.25
2023-11-12T22:10:10.717Z,2.80
2023-11-12T22:12:39.684Z,3.17
2023-11-12T22:15:09.995Z,3.10
2023-11-12T22:17:37.929Z,3.17
2023-11-12T22:20:07.086Z,2.97
2023-11-12T22:22:35.022Z,2.85
2023-11-12T22:25:11.375Z,2.83
2023-11-12T22:27:43.403Z,2.90
2023-11-12T22:30:13.017Z,2.92
2023-11-12T22:32:40.699Z,2.70
2023-11-12T22:35:09.745Z,2.50
2023-11-12T22:37:38.695Z,3.00
2023-11-12T22:40:08.250Z,2.63
2023-11-12T22:42:36.466Z,2.85
2023-11-12T22:45:04.371Z,3.10
2023-11-12T22:47:32.698Z,2.80
2023-11-12T22:50:00.477Z,2.70
2023-11-12T22:52:28.617Z,4.38
2023-11-12T22:54:57.636Z,4.35
2023-11-12T22:57:26.178Z,3.30
2023-11-12T22:59:53.808Z,3.20
2023-11-12T23:02:22.015Z,2.75
2023-11-12T23:04:49.953Z,2.65
2023-11-12T23:07:18.808Z,3.38
2023-11-12T23:09:46.703Z,3.03
2023-11-12T23:12:19.650Z,3.53
2023-11-12T23:14:47.311Z,3.00
2023-11-12T23:17:15.055Z,3.38
2023-11-12T23:19:43.007Z,3.35
2023-11-12T23:22:10.647Z,3.72
2023-11-12T23:24:38.317Z,3.90
2023-11-12T23:27:06.021Z,3.20
2023-11-12T23:29:35.901Z,3.53
2023-11-12T23:32:07.454Z,3.47
2023-11-12T23:34:37.111Z,4.00
2023-11-12T23:37:07.641Z,3.42
2023-11-12T23:39:36.818Z,3.60
2023-11-12T23:42:05.113Z,3.30
2023-11-12T23:44:32.682Z,3.38
2023-11-12T23:47:01.673Z,3.50
2023-11-12T23:49:29.360Z,4.68
2023-11-12T23:51:58.346Z,5.07
2023-11-12T23:54:26.043Z,4.30
2023-11-12T23:56:55.017Z,3.97
2023-11-12T23:59:22.932Z,3.75
